sensor_id;sensor_type;location;lat;lon;timestamp;P1;durP1;ratioP1;P2;durP2;ratioP2
17259;SDS011;8746;49.230;9.220;2023-02-13T00:01:13;28.30;;;16.77;;
17259;SDS011;8746;49.230;9.220;2023-02-13T00:03:39;27.47;;;15.80;;
17259;SDS011;8746;49.230;9.220;2023-02-13T00:06:05;26.57;;;15.20;;
17259;SDS011;8746;49.230;9.220;2023-02-13T00:08:30;26.10;;;15.77;;
17259;SDS011;8746;49.230;9.220;2023-02-13T00:10:56;34.07;;;19.07;;
17259;SDS011;8746;49.230;9.220;2023-02-13T00:13:21;86.07;;;39.17;;
17259;SDS011;8746;49.230;9.220;2023-02-13T00:15:57;113.30;;;50.17;;
17259;SDS011;8746;49.230;9.220;2023-02-13T00:18:25;110.87;;;49.67;;
17259;SDS011;8746;49.230;9.220;2023-02-13T00:20:58;93.40;;;43.30;;
17259;SDS011;8746;49.230;9.220;2023-02-13T00:23:24;40.57;;;22.07;;
17259;SDS011;8746;49.230;9.220;2023-02-13T00:25:50;46.47;;;23.33;;
17259;SDS011;8746;49.230;9.220;2023-02-13T00:28:15;70.93;;;34.67;;
17259;SDS011;8746;49.230;9.220;2023-02-13T00:30:40;66.67;;;33.53;;
17259;SDS011;8746;49.230;9.220;2023-02-13T00:33:06;44.37;;;22.67;;
17259;SDS011;8746;49.230;9.220;2023-02-13T00:35:31;39.03;;;21.00;;
17259;SDS011;8746;49.230;9.220;2023-02-13T00:37:57;63.63;;;34.13;;
17259;SDS011;8746;49.230;9.220;2023-02-13T00:40:22;94.20;;;43.00;;
17259;SDS011;8746;49.230;9.220;2023-02-13T00:42:48;70.90;;;36.57;;
17259;SDS011;8746;49.230;9.220;2023-02-13T00:45:13;69.17;;;33.40;;
17259;SDS011;8746;49.230;9.220;2023-02-13T00:47:39;40.53;;;22.97;;
17259;SDS011;8746;49.230;9.220;2023-02-13T00:50:04;37.23;;;19.80;;
17259;SDS011;8746;49.230;9.220;2023-02-13T00:52:30;32.57;;;19.10;;
17259;SDS011;8746;49.230;9.220;2023-02-13T00:54:55;48.07;;;25.80;;
17259;SDS011;8746;49.230;9.220;2023-02-13T00:57:21;71.17;;;34.20;;
17259;SDS011;8746;49.230;9.220;2023-02-13T00:59:46;81.47;;;39.10;;
17259;SDS011;8746;49.230;9.220;2023-02-13T01:02:12;41.77;;;22.57;;
17259;SDS011;8746;49.230;9.220;2023-02-13T01:04:37;72.27;;;36.87;;
17259;SDS011;8746;49.230;9.220;2023-02-13T01:07:02;60.53;;;31.80;;
17259;SDS011;8746;49.230;9.220;2023-02-13T01:09:28;76.27;;;38.77;;
17259;SDS011;8746;49.230;9.220;2023-02-13T01:11:53;84.30;;;40.93;;
17259;SDS011;8746;49.230;9.220;2023-02-13T01:14:19;65.47;;;34.97;;
17259;SDS011;8746;49.230;9.220;2023-02-13T01:16:44;67.57;;;36.83;;
17259;SDS011;8746;49.230;9.220;2023-02-13T01:19:09;49.10;;;26.03;;
17259;SDS011;8746;49.230;9.220;2023-02-13T01:21:35;38.10;;;20.90;;
17259;SDS011;8746;49.230;9.220;2023-02-13T01:24:02;115.27;;;58.00;;
17259;SDS011;8746;49.230;9.220;2023-02-13T01:26:28;46.47;;;25.00;;
17259;SDS011;8746;49.230;9.220;2023-02-13T01:28:54;44.93;;;23.07;;
17259;SDS011;8746;49.230;9.220;2023-02-13T01:31:19;37.40;;;21.07;;
17259;SDS011;8746;49.230;9.220;2023-02-13T01:33:45;37.47;;;20.93;;
17259;SDS011;8746;49.230;9.220;2023-02-13T01:36:11;33.60;;;20.00;;
17259;SDS011;8746;49.230;9.220;2023-02-13T01:38:38;37.00;;;20.07;;
17259;SDS011;8746;49.230;9.220;2023-02-13T01:41:04;31.57;;;19.47;;
17259;SDS011;8746;49.230;9.220;2023-02-13T01:46:18;36.77;;;19.07;;
17259;SDS011;8746;49.230;9.220;2023-02-13T01:48:48;39.67;;;22.87;;
17259;SDS011;8746;49.230;9.220;2023-02-13T01:51:24;61.73;;;34.67;;
17259;SDS011;8746;49.230;9.220;2023-02-13T01:54:01;53.93;;;29.90;;
17259;SDS011;8746;49.230;9.220;2023-02-13T01:56:44;42.80;;;22.40;;
17259;SDS011;8746;49.230;9.220;2023-02-13T01:59:15;53.70;;;28.37;;
17259;SDS011;8746;49.230;9.220;2023-02-13T02:01:45;67.70;;;35.07;;
17259;SDS011;8746;49.230;9.220;2023-02-13T02:04:14;52.67;;;27.60;;
17259;SDS011;8746;49.230;9.220;2023-02-13T02:06:56;38.13;;;19.87;;
17259;SDS011;8746;49.230;9.220;2023-02-13T02:09:29;39.80;;;21.20;;
17259;SDS011;8746;49.230;9.220;2023-02-13T02:11:59;37.20;;;20.17;;
17259;SDS011;8746;49.230;9.220;2023-02-13T02:14:28;41.47;;;21.10;;
17259;SDS011;8746;49.230;9.220;2023-02-13T02:16:54;36.03;;;20.73;;
17259;SDS011;8746;49.230;9.220;2023-02-13T02:19:43;39.93;;;21.30;;
17259;SDS011;8746;49.230;9.220;2023-02-13T02:22:33;35.53;;;20.07;;
17259;SDS011;8746;49.230;9.220;2023-02-13T02:25:26;43.17;;;22.43;;
17259;SDS011;8746;49.230;9.220;2023-02-13T02:47:22;44.97;;;21.90;;
17259;SDS011;8746;49.230;9.220;2023-02-13T02:52:54;38.67;;;20.83;;
17259;SDS011;8746;49.230;9.220;2023-02-13T03:01:26;37.93;;;20.47;;
17259;SDS011;8746;49.230;9.220;2023-02-13T03:04:19;38.77;;;20.47;;
17259;SDS011;8746;49.230;9.220;2023-02-13T03:07:18;37.10;;;19.90;;
17259;SDS011;8746;49.230;9.220;2023-02-13T03:09:49;40.17;;;21.03;;
17259;SDS011;8746;49.230;9.220;2023-02-13T03:12:57;35.87;;;20.07;;
17259;SDS011;8746;49.230;9.220;2023-02-13T03:15:48;40.67;;;21.97;;
17259;SDS011;8746;49.230;9.220;2023-02-13T03:18:35;44.10;;;21.73;;
17259;SDS011;8746;49.230;9.220;2023-02-13T03:27:28;36.90;;;20.13;;
17259;SDS011;8746;49.230;9.220;2023-02-13T03:33:29;41.70;;;19.93;;
17259;SDS011;8746;49.230;9.220;2023-02-13T03:39:19;41.47;;;19.53;;
17259;SDS011;8746;49.230;9.220;2023-02-13T03:42:03;34.23;;;17.67;;
17259;SDS011;8746;49.230;9.220;2023-02-13T03:47:32;37.90;;;19.10;;
17259;SDS011;8746;49.230;9.220;2023-02-13T03:49:59;38.93;;;20.53;;
17259;SDS011;8746;49.230;9.220;2023-02-13T03:55:23;46.10;;;20.60;;
17259;SDS011;8746;49.230;9.220;2023-02-13T03:58:14;43.97;;;20.43;;
17259;SDS011;8746;49.230;9.220;2023-02-13T04:01:06;42.10;;;20.27;;
17259;SDS011;8746;49.230;9.220;2023-02-13T04:06:13;34.63;;;19.80;;
17259;SDS011;8746;49.230;9.220;2023-02-13T04:08:43;54.63;;;18.23;;
17259;SDS011;8746;49.230;9.220;2023-02-13T04:11:12;37.87;;;18.50;;
17259;SDS011;8746;49.230;9.220;2023-02-13T04:13:43;53.47;;;20.53;;
17259;SDS011;8746;49.230;9.220;2023-02-13T04:19:05;43.67;;;18.30;;
17259;SDS011;8746;49.230;9.220;2023-02-13T04:21:33;58.43;;;20.43;;
17259;SDS011;8746;49.230;9.220;2023-02-13T04:24:00;43.70;;;19.33;;
17259;SDS011;8746;49.230;9.220;2023-02-13T04:26:25;45.07;;;19.77;;
17259;SDS011;8746;49.230;9.220;2023-02-13T04:28:57;54.83;;;20.10;;
17259;SDS011;8746;49.230;9.220;2023-02-13T04:31:22;44.30;;;18.77;;
17259;SDS011;8746;49.230;9.220;2023-02-13T04:33:47;46.83;;;18.00;;
17259;SDS011;8746;49.230;9.220;2023-02-13T04:36:13;43.97;;;18.47;;
17259;SDS011;8746;49.230;9.220;2023-02-13T04:38:38;40.80;;;18.87;;
17259;SDS011;8746;49.230;9.220;2023-02-13T04:41:04;33.73;;;18.67;;
17259;SDS011;8746;49.230;9.220;2023-02-13T04:43:29;41.97;;;19.03;;
17259;SDS011;8746;49.230;9.220;2023-02-13T04:45:55;44.27;;;18.57;;
17259;SDS011;8746;49.230;9.220;2023-02-13T04:48:20;42.20;;;18.47;;
17259;SDS011;8746;49.230;9.220;2023-02-13T04:50:46;56.57;;;18.07;;
17259;SDS011;8746;49.230;9.220;2023-02-13T04:53:12;57.27;;;19.07;;
17259;SDS011;8746;49.230;9.220;2023-02-13T04:55:37;44.70;;;17.30;;
17259;SDS011;8746;49.230;9.220;2023-02-13T04:58:03;32.00;;;17.83;;
17259;SDS011;8746;49.230;9.220;2023-02-13T05:00:28;50.20;;;17.63;;
17259;SDS011;8746;49.230;9.220;2023-02-13T05:02:59;47.43;;;18.30;;
17259;SDS011;8746;49.230;9.220;2023-02-13T05:05:45;48.47;;;16.87;;
17259;SDS011;8746;49.230;9.220;2023-02-13T05:08:10;33.30;;;17.13;;
17259;SDS011;8746;49.230;9.220;2023-02-13T05:10:35;43.93;;;16.93;;
17259;SDS011;8746;49.230;9.220;2023-02-13T05:13:01;57.73;;;17.23;;
17259;SDS011;8746;49.230;9.220;2023-02-13T05:15:27;47.27;;;16.43;;
17259;SDS011;8746;49.230;9.220;2023-02-13T05:17:52;68.23;;;16.87;;
17259;SDS011;8746;49.230;9.220;2023-02-13T05:20:18;55.17;;;18.57;;
17259;SDS011;8746;49.230;9.220;2023-02-13T05:22:50;47.37;;;16.90;;
17259;SDS011;8746;49.230;9.220;2023-02-13T05:25:36;54.97;;;16.83;;
17259;SDS011;8746;49.230;9.220;2023-02-13T05:28:04;68.17;;;22.33;;
17259;SDS011;8746;49.230;9.220;2023-02-13T05:30:49;45.27;;;15.60;;
17259;SDS011;8746;49.230;9.220;2023-02-13T05:33:14;73.97;;;19.57;;
17259;SDS011;8746;49.230;9.220;2023-02-13T05:35:40;84.03;;;21.87;;
17259;SDS011;8746;49.230;9.220;2023-02-13T05:38:05;62.40;;;20.03;;
17259;SDS011;8746;49.230;9.220;2023-02-13T05:40:31;87.43;;;28.13;;
17259;SDS011;8746;49.230;9.220;2023-02-13T05:42:56;67.80;;;19.47;;
17259;SDS011;8746;49.230;9.220;2023-02-13T05:45:21;70.33;;;21.50;;
17259;SDS011;8746;49.230;9.220;2023-02-13T05:47:47;92.53;;;19.33;;
17259;SDS011;8746;49.230;9.220;2023-02-13T05:50:12;175.97;;;66.33;;
17259;SDS011;8746;49.230;9.220;2023-02-13T05:52:38;82.70;;;22.00;;
17259;SDS011;8746;49.230;9.220;2023-02-13T05:55:03;81.53;;;20.20;;
17259;SDS011;8746;49.230;9.220;2023-02-13T05:57:28;73.57;;;17.77;;
17259;SDS011;8746;49.230;9.220;2023-02-13T05:59:54;75.93;;;21.53;;
17259;SDS011;8746;49.230;9.220;2023-02-13T06:02:19;105.40;;;28.30;;
17259;SDS011;8746;49.230;9.220;2023-02-13T06:04:45;74.03;;;21.47;;
17259;SDS011;8746;49.230;9.220;2023-02-13T06:07:10;57.33;;;19.40;;
17259;SDS011;8746;49.230;9.220;2023-02-13T06:09:35;72.93;;;18.70;;
17259;SDS011;8746;49.230;9.220;2023-02-13T06:12:01;49.63;;;14.33;;
17259;SDS011;8746;49.230;9.220;2023-02-13T06:14:26;61.37;;;15.00;;
17259;SDS011;8746;49.230;9.220;2023-02-13T06:16:51;75.93;;;15.23;;
17259;SDS011;8746;49.230;9.220;2023-02-13T06:19:17;69.53;;;15.27;;
17259;SDS011;8746;49.230;9.220;2023-02-13T06:21:42;45.60;;;14.63;;
17259;SDS011;8746;49.230;9.220;2023-02-13T06:24:07;72.37;;;14.43;;
17259;SDS011;8746;49.230;9.220;2023-02-13T06:26:33;59.10;;;14.53;;
17259;SDS011;8746;49.230;9.220;2023-02-13T06:28:59;51.57;;;15.03;;
17259;SDS011;8746;49.230;9.220;2023-02-13T06:31:24;37.63;;;14.00;;
17259;SDS011;8746;49.230;9.220;2023-02-13T06:33:50;62.60;;;15.10;;
17259;SDS011;8746;49.230;9.220;2023-02-13T06:36:15;137.57;;;15.73;;
17259;SDS011;8746;49.230;9.220;2023-02-13T06:38:40;121.00;;;17.17;;
17259;SDS011;8746;49.230;9.220;2023-02-13T06:41:07;126.07;;;16.30;;
17259;SDS011;8746;49.230;9.220;2023-02-13T06:43:32;79.40;;;16.13;;
17259;SDS011;8746;49.230;9.220;2023-02-13T06:45:57;103.40;;;15.30;;
17259;SDS011;8746;49.230;9.220;2023-02-13T06:48:23;39.93;;;13.23;;
17259;SDS011;8746;49.230;9.220;2023-02-13T06:50:49;27.77;;;13.73;;
17259;SDS011;8746;49.230;9.220;2023-02-13T06:53:16;24.27;;;13.13;;
17259;SDS011;8746;49.230;9.220;2023-02-13T06:55:42;31.63;;;11.87;;
17259;SDS011;8746;49.230;9.220;2023-02-13T06:58:08;26.43;;;12.97;;
17259;SDS011;8746;49.230;9.220;2023-02-13T07:00:33;21.53;;;12.60;;
17259;SDS011;8746;49.230;9.220;2023-02-13T07:03:02;23.20;;;13.13;;
17259;SDS011;8746;49.230;9.220;2023-02-13T07:05:30;23.70;;;14.07;;
17259;SDS011;8746;49.230;9.220;2023-02-13T07:07:56;26.13;;;13.60;;
17259;SDS011;8746;49.230;9.220;2023-02-13T07:10:25;28.00;;;14.87;;
17259;SDS011;8746;49.230;9.220;2023-02-13T07:12:50;22.00;;;13.60;;
17259;SDS011;8746;49.230;9.220;2023-02-13T07:15:16;22.50;;;14.60;;
17259;SDS011;8746;49.230;9.220;2023-02-13T07:17:41;26.60;;;15.93;;
17259;SDS011;8746;49.230;9.220;2023-02-13T07:20:07;23.80;;;14.57;;
17259;SDS011;8746;49.230;9.220;2023-02-13T07:22:33;20.20;;;11.73;;
17259;SDS011;8746;49.230;9.220;2023-02-13T07:24:58;24.27;;;14.20;;
17259;SDS011;8746;49.230;9.220;2023-02-13T07:27:26;24.93;;;16.30;;
17259;SDS011;8746;49.230;9.220;2023-02-13T07:29:55;23.80;;;15.43;;
17259;SDS011;8746;49.230;9.220;2023-02-13T07:32:21;24.40;;;14.50;;
17259;SDS011;8746;49.230;9.220;2023-02-13T07:34:48;26.70;;;16.03;;
17259;SDS011;8746;49.230;9.220;2023-02-13T07:37:13;25.93;;;16.23;;
17259;SDS011;8746;49.230;9.220;2023-02-13T07:39:38;24.27;;;14.13;;
17259;SDS011;8746;49.230;9.220;2023-02-13T07:42:04;23.33;;;15.07;;
17259;SDS011;8746;49.230;9.220;2023-02-13T07:44:30;24.90;;;14.87;;
17259;SDS011;8746;49.230;9.220;2023-02-13T07:46:55;22.17;;;14.50;;
17259;SDS011;8746;49.230;9.220;2023-02-13T07:49:21;25.93;;;15.50;;
17259;SDS011;8746;49.230;9.220;2023-02-13T07:51:46;24.77;;;13.00;;
17259;SDS011;8746;49.230;9.220;2023-02-13T07:54:11;24.00;;;14.90;;
17259;SDS011;8746;49.230;9.220;2023-02-13T07:56:37;27.33;;;16.30;;
17259;SDS011;8746;49.230;9.220;2023-02-13T07:59:02;25.77;;;15.10;;
17259;SDS011;8746;49.230;9.220;2023-02-13T08:01:28;23.30;;;13.93;;
17259;SDS011;8746;49.230;9.220;2023-02-13T08:03:53;24.60;;;14.73;;
17259;SDS011;8746;49.230;9.220;2023-02-13T08:06:19;24.63;;;15.27;;
17259;SDS011;8746;49.230;9.220;2023-02-13T08:08:45;22.33;;;14.83;;
17259;SDS011;8746;49.230;9.220;2023-02-13T08:11:25;21.47;;;14.20;;
17259;SDS011;8746;49.230;9.220;2023-02-13T08:14:14;22.87;;;14.07;;
17259;SDS011;8746;49.230;9.220;2023-02-13T08:16:39;24.47;;;15.23;;
17259;SDS011;8746;49.230;9.220;2023-02-13T08:19:05;21.83;;;13.30;;
17259;SDS011;8746;49.230;9.220;2023-02-13T08:21:30;20.00;;;12.63;;
17259;SDS011;8746;49.230;9.220;2023-02-13T08:23:56;20.53;;;12.77;;
17259;SDS011;8746;49.230;9.220;2023-02-13T08:26:21;20.97;;;13.13;;
17259;SDS011;8746;49.230;9.220;2023-02-13T08:28:47;21.37;;;13.33;;
17259;SDS011;8746;49.230;9.220;2023-02-13T08:31:12;18.87;;;12.37;;
17259;SDS011;8746;49.230;9.220;2023-02-13T08:33:37;20.93;;;13.37;;
17259;SDS011;8746;49.230;9.220;2023-02-13T08:36:05;22.43;;;14.13;;
17259;SDS011;8746;49.230;9.220;2023-02-13T08:38:31;22.87;;;13.97;;
17259;SDS011;8746;49.230;9.220;2023-02-13T08:40:56;20.60;;;14.20;;
17259;SDS011;8746;49.230;9.220;2023-02-13T08:43:22;30.83;;;18.57;;
17259;SDS011;8746;49.230;9.220;2023-02-13T08:45:47;23.30;;;14.53;;
17259;SDS011;8746;49.230;9.220;2023-02-13T08:48:13;22.97;;;14.27;;
17259;SDS011;8746;49.230;9.220;2023-02-13T08:50:38;22.13;;;14.07;;
17259;SDS011;8746;49.230;9.220;2023-02-13T08:53:03;21.23;;;13.53;;
17259;SDS011;8746;49.230;9.220;2023-02-13T08:55:29;22.70;;;13.63;;
17259;SDS011;8746;49.230;9.220;2023-02-13T08:57:58;22.53;;;14.33;;
17259;SDS011;8746;49.230;9.220;2023-02-13T09:00:27;22.33;;;13.93;;
17259;SDS011;8746;49.230;9.220;2023-02-13T09:02:52;22.70;;;13.70;;
17259;SDS011;8746;49.230;9.220;2023-02-13T09:05:18;21.43;;;13.27;;
17259;SDS011;8746;49.230;9.220;2023-02-13T09:07:43;20.53;;;12.97;;
17259;SDS011;8746;49.230;9.220;2023-02-13T09:10:09;20.07;;;12.97;;
17259;SDS011;8746;49.230;9.220;2023-02-13T09:12:34;20.83;;;13.10;;
17259;SDS011;8746;49.230;9.220;2023-02-13T09:15:00;19.73;;;13.93;;
17259;SDS011;8746;49.230;9.220;2023-02-13T09:17:25;20.90;;;13.63;;
17259;SDS011;8746;49.230;9.220;2023-02-13T09:19:50;20.47;;;13.43;;
17259;SDS011;8746;49.230;9.220;2023-02-13T09:22:16;19.50;;;13.03;;
17259;SDS011;8746;49.230;9.220;2023-02-13T09:24:41;19.70;;;13.13;;
17259;SDS011;8746;49.230;9.220;2023-02-13T09:27:06;20.07;;;13.73;;
17259;SDS011;8746;49.230;9.220;2023-02-13T09:29:32;19.53;;;13.07;;
17259;SDS011;8746;49.230;9.220;2023-02-13T09:31:59;20.70;;;14.53;;
17259;SDS011;8746;49.230;9.220;2023-02-13T09:34:24;18.77;;;13.07;;
17259;SDS011;8746;49.230;9.220;2023-02-13T09:36:50;18.30;;;12.37;;
17259;SDS011;8746;49.230;9.220;2023-02-13T09:39:17;16.23;;;10.53;;
17259;SDS011;8746;49.230;9.220;2023-02-13T09:41:42;18.07;;;11.77;;
17259;SDS011;8746;49.230;9.220;2023-02-13T09:44:11;17.50;;;12.27;;
17259;SDS011;8746;49.230;9.220;2023-02-13T09:50:09;17.03;;;11.97;;
17259;SDS011;8746;49.230;9.220;2023-02-13T09:52:38;15.97;;;11.03;;
17259;SDS011;8746;49.230;9.220;2023-02-13T09:55:14;15.93;;;11.00;;
17259;SDS011;8746;49.230;9.220;2023-02-13T09:57:59;14.93;;;10.70;;
17259;SDS011;8746;49.230;9.220;2023-02-13T10:00:33;14.33;;;10.60;;
17259;SDS011;8746;49.230;9.220;2023-02-13T10:03:24;15.67;;;11.10;;
17259;SDS011;8746;49.230;9.220;2023-02-13T10:11:15;14.97;;;10.97;;
17259;SDS011;8746;49.230;9.220;2023-02-13T10:21:59;13.20;;;10.13;;
17259;SDS011;8746;49.230;9.220;2023-02-13T10:24:46;12.43;;;9.30;;
17259;SDS011;8746;49.230;9.220;2023-02-13T10:27:24;12.53;;;9.10;;
17259;SDS011;8746;49.230;9.220;2023-02-13T10:35:35;11.80;;;9.40;;
17259;SDS011;8746;49.230;9.220;2023-02-13T10:38:03;10.03;;;7.73;;
17259;SDS011;8746;49.230;9.220;2023-02-13T10:40:39;11.10;;;9.00;;
17259;SDS011;8746;49.230;9.220;2023-02-13T10:43:16;11.03;;;9.07;;
17259;SDS011;8746;49.230;9.220;2023-02-13T10:50:55;9.43;;;7.47;;
17259;SDS011;8746;49.230;9.220;2023-02-13T10:53:33;10.47;;;8.53;;
17259;SDS011;8746;49.230;9.220;2023-02-13T10:56:17;11.03;;;8.30;;
17259;SDS011;8746;49.230;9.220;2023-02-13T10:59:11;11.67;;;8.80;;
17259;SDS011;8746;49.230;9.220;2023-02-13T11:01:55;12.00;;;9.90;;
17259;SDS011;8746;49.230;9.220;2023-02-13T11:04:25;11.33;;;8.60;;
17259;SDS011;8746;49.230;9.220;2023-02-13T11:09:22;11.17;;;8.67;;
17259;SDS011;8746;49.230;9.220;2023-02-13T11:11:48;9.73;;;8.40;;
17259;SDS011;8746;49.230;9.220;2023-02-13T11:16:46;9.90;;;7.87;;
17259;SDS011;8746;49.230;9.220;2023-02-13T11:19:16;12.43;;;8.97;;
17259;SDS011;8746;49.230;9.220;2023-02-13T11:21:46;11.77;;;9.23;;
17259;SDS011;8746;49.230;9.220;2023-02-13T11:24:18;10.93;;;8.23;;
17259;SDS011;8746;49.230;9.220;2023-02-13T11:26:49;10.90;;;7.73;;
17259;SDS011;8746;49.230;9.220;2023-02-13T11:29:20;11.33;;;8.60;;
17259;SDS011;8746;49.230;9.220;2023-02-13T11:34:40;11.80;;;8.77;;
17259;SDS011;8746;49.230;9.220;2023-02-13T11:39:36;11.50;;;8.33;;
17259;SDS011;8746;49.230;9.220;2023-02-13T11:42:03;9.80;;;7.80;;
17259;SDS011;8746;49.230;9.220;2023-02-13T11:44:38;10.77;;;9.07;;
17259;SDS011;8746;49.230;9.220;2023-02-13T11:47:05;9.17;;;7.67;;
17259;SDS011;8746;49.230;9.220;2023-02-13T11:49:35;11.17;;;7.87;;
17259;SDS011;8746;49.230;9.220;2023-02-13T11:52:06;11.27;;;8.40;;
17259;SDS011;8746;49.230;9.220;2023-02-13T11:54:47;10.33;;;8.40;;
17259;SDS011;8746;49.230;9.220;2023-02-13T11:57:22;10.33;;;8.60;;
17259;SDS011;8746;49.230;9.220;2023-02-13T11:59:50;10.47;;;8.63;;
17259;SDS011;8746;49.230;9.220;2023-02-13T12:04:42;11.73;;;8.97;;
17259;SDS011;8746;49.230;9.220;2023-02-13T12:09:45;8.80;;;7.90;;
17259;SDS011;8746;49.230;9.220;2023-02-13T12:12:18;10.20;;;8.03;;
17259;SDS011;8746;49.230;9.220;2023-02-13T12:14:51;10.27;;;8.53;;
17259;SDS011;8746;49.230;9.220;2023-02-13T12:17:24;11.13;;;8.40;;
17259;SDS011;8746;49.230;9.220;2023-02-13T12:19:53;9.17;;;8.10;;
17259;SDS011;8746;49.230;9.220;2023-02-13T12:28:14;8.83;;;7.87;;
17259;SDS011;8746;49.230;9.220;2023-02-13T12:30:53;8.97;;;7.80;;
17259;SDS011;8746;49.230;9.220;2023-02-13T12:36:34;8.93;;;7.03;;
17259;SDS011;8746;49.230;9.220;2023-02-13T12:47:14;10.43;;;7.77;;
17259;SDS011;8746;49.230;9.220;2023-02-13T12:52:46;8.57;;;6.93;;
17259;SDS011;8746;49.230;9.220;2023-02-13T12:55:31;8.27;;;7.37;;
17259;SDS011;8746;49.230;9.220;2023-02-13T13:17:26;7.70;;;6.60;;
17259;SDS011;8746;49.230;9.220;2023-02-13T13:22:40;9.83;;;6.50;;
17259;SDS011;8746;49.230;9.220;2023-02-13T13:25:26;8.30;;;6.67;;
17259;SDS011;8746;49.230;9.220;2023-02-13T13:27:56;9.27;;;6.17;;
17259;SDS011;8746;49.230;9.220;2023-02-13T13:30:30;6.30;;;5.70;;
17259;SDS011;8746;49.230;9.220;2023-02-13T13:33:03;7.00;;;6.10;;
17259;SDS011;8746;49.230;9.220;2023-02-13T13:35:29;6.53;;;5.57;;
17259;SDS011;8746;49.230;9.220;2023-02-13T13:45:47;6.67;;;5.90;;
17259;SDS011;8746;49.230;9.220;2023-02-13T13:51:11;6.03;;;5.43;;
17259;SDS011;8746;49.230;9.220;2023-02-13T13:57:10;6.53;;;5.77;;
17259;SDS011;8746;49.230;9.220;2023-02-13T13:59:17;6.57;;;5.77;;
17259;SDS011;8746;49.230;9.220;2023-02-13T14:01:44;5.63;;;4.97;;
17259;SDS011;8746;49.230;9.220;2023-02-13T14:11:52;6.70;;;5.70;;
17259;SDS011;8746;49.230;9.220;2023-02-13T14:16:57;5.73;;;5.13;;
17259;SDS011;8746;49.230;9.220;2023-02-13T14:25:05;6.73;;;5.83;;
17259;SDS011;8746;49.230;9.220;2023-02-13T14:27:50;6.20;;;5.07;;
17259;SDS011;8746;49.230;9.220;2023-02-13T14:30:28;5.83;;;5.23;;
17259;SDS011;8746;49.230;9.220;2023-02-13T14:32:59;7.50;;;5.87;;
17259;SDS011;8746;49.230;9.220;2023-02-13T14:35:34;5.43;;;4.93;;
17259;SDS011;8746;49.230;9.220;2023-02-13T14:38:03;5.90;;;5.30;;
17259;SDS011;8746;49.230;9.220;2023-02-13T14:40:41;5.70;;;5.20;;
17259;SDS011;8746;49.230;9.220;2023-02-13T14:45:53;5.30;;;4.80;;
17259;SDS011;8746;49.230;9.220;2023-02-13T14:48:30;6.83;;;5.60;;
17259;SDS011;8746;49.230;9.220;2023-02-13T14:51:01;7.60;;;5.33;;
17259;SDS011;8746;49.230;9.220;2023-02-13T14:53:30;6.37;;;5.03;;
17259;SDS011;8746;49.230;9.220;2023-02-13T14:56:05;6.57;;;5.10;;
17259;SDS011;8746;49.230;9.220;2023-02-13T14:58:46;6.90;;;5.30;;
17259;SDS011;8746;49.230;9.220;2023-02-13T15:03:56;7.13;;;5.67;;
17259;SDS011;8746;49.230;9.220;2023-02-13T15:06:28;5.50;;;4.90;;
17259;SDS011;8746;49.230;9.220;2023-02-13T15:08:58;5.63;;;5.13;;
17259;SDS011;8746;49.230;9.220;2023-02-13T15:11:36;5.93;;;5.33;;
17259;SDS011;8746;49.230;9.220;2023-02-13T15:16:44;5.93;;;4.70;;
17259;SDS011;8746;49.230;9.220;2023-02-13T15:19:14;5.87;;;5.27;;
17259;SDS011;8746;49.230;9.220;2023-02-13T15:21:58;7.60;;;5.20;;
17259;SDS011;8746;49.230;9.220;2023-02-13T15:24:25;6.27;;;5.67;;
17259;SDS011;8746;49.230;9.220;2023-02-13T15:27:02;6.70;;;5.93;;
17259;SDS011;8746;49.230;9.220;2023-02-13T15:29:29;5.97;;;5.27;;
17259;SDS011;8746;49.230;9.220;2023-02-13T15:31:55;7.03;;;5.20;;
17259;SDS011;8746;49.230;9.220;2023-02-13T15:34:23;7.03;;;5.80;;
17259;SDS011;8746;49.230;9.220;2023-02-13T15:36:51;6.97;;;5.70;;
17259;SDS011;8746;49.230;9.220;2023-02-13T15:39:18;6.80;;;5.70;;
17259;SDS011;8746;49.230;9.220;2023-02-13T15:41:48;7.23;;;5.33;;
17259;SDS011;8746;49.230;9.220;2023-02-13T15:44:16;6.60;;;5.33;;
17259;SDS011;8746;49.230;9.220;2023-02-13T15:46:48;6.83;;;6.10;;
17259;SDS011;8746;49.230;9.220;2023-02-13T15:49:18;8.23;;;6.00;;
17259;SDS011;8746;49.230;9.220;2023-02-13T15:51:47;6.80;;;6.10;;
17259;SDS011;8746;49.230;9.220;2023-02-13T15:54:26;7.23;;;6.47;;
17259;SDS011;8746;49.230;9.220;2023-02-13T15:56:53;9.20;;;6.73;;
17259;SDS011;8746;49.230;9.220;2023-02-13T15:59:21;8.60;;;6.70;;
17259;SDS011;8746;49.230;9.220;2023-02-13T16:01:48;8.27;;;6.67;;
17259;SDS011;8746;49.230;9.220;2023-02-13T16:04:17;9.30;;;7.40;;
17259;SDS011;8746;49.230;9.220;2023-02-13T16:06:44;12.37;;;7.10;;
17259;SDS011;8746;49.230;9.220;2023-02-13T16:12:06;9.53;;;7.33;;
17259;SDS011;8746;49.230;9.220;2023-02-13T16:15:03;10.73;;;8.23;;
17259;SDS011;8746;49.230;9.220;2023-02-13T16:17:36;10.70;;;7.97;;
17259;SDS011;8746;49.230;9.220;2023-02-13T16:20:07;8.90;;;7.07;;
17259;SDS011;8746;49.230;9.220;2023-02-13T16:30:23;12.97;;;8.30;;
17259;SDS011;8746;49.230;9.220;2023-02-13T16:33:07;11.23;;;7.80;;
17259;SDS011;8746;49.230;9.220;2023-02-13T16:35:36;10.83;;;7.97;;
17259;SDS011;8746;49.230;9.220;2023-02-13T16:38:03;10.47;;;8.70;;
17259;SDS011;8746;49.230;9.220;2023-02-13T16:46:09;75.20;;;55.73;;
17259;SDS011;8746;49.230;9.220;2023-02-13T16:51:43;37.00;;;33.47;;
17259;SDS011;8746;49.230;9.220;2023-02-13T16:54:23;42.40;;;38.33;;
17259;SDS011;8746;49.230;9.220;2023-02-13T16:56:50;39.97;;;35.73;;
17259;SDS011;8746;49.230;9.220;2023-02-13T17:02:10;14.00;;;12.23;;
17259;SDS011;8746;49.230;9.220;2023-02-13T17:07:26;15.83;;;13.93;;
17259;SDS011;8746;49.230;9.220;2023-02-13T17:10:01;12.57;;;10.43;;
17259;SDS011;8746;49.230;9.220;2023-02-13T17:12:32;19.40;;;17.33;;
17259;SDS011;8746;49.230;9.220;2023-02-13T17:15:01;16.87;;;12.87;;
17259;SDS011;8746;49.230;9.220;2023-02-13T17:17:29;15.63;;;13.00;;
17259;SDS011;8746;49.230;9.220;2023-02-13T17:19:56;15.10;;;10.80;;
17259;SDS011;8746;49.230;9.220;2023-02-13T17:24:57;21.10;;;18.67;;
17259;SDS011;8746;49.230;9.220;2023-02-13T17:27:23;22.20;;;19.87;;
17259;SDS011;8746;49.230;9.220;2023-02-13T17:29:49;18.40;;;14.47;;
17259;SDS011;8746;49.230;9.220;2023-02-13T17:32:16;19.30;;;14.83;;
17259;SDS011;8746;49.230;9.220;2023-02-13T17:34:43;19.10;;;15.40;;
17259;SDS011;8746;49.230;9.220;2023-02-13T17:37:26;18.20;;;15.10;;
17259;SDS011;8746;49.230;9.220;2023-02-13T17:39:52;19.87;;;16.60;;
17259;SDS011;8746;49.230;9.220;2023-02-13T17:42:25;16.40;;;12.10;;
17259;SDS011;8746;49.230;9.220;2023-02-13T17:44:52;16.37;;;12.27;;
17259;SDS011;8746;49.230;9.220;2023-02-13T17:47:19;17.27;;;11.80;;
17259;SDS011;8746;49.230;9.220;2023-02-13T17:49:45;14.47;;;11.17;;
17259;SDS011;8746;49.230;9.220;2023-02-13T17:52:13;13.33;;;10.43;;
17259;SDS011;8746;49.230;9.220;2023-02-13T17:54:41;15.60;;;11.60;;
17259;SDS011;8746;49.230;9.220;2023-02-13T17:57:07;15.67;;;11.20;;
17259;SDS011;8746;49.230;9.220;2023-02-13T17:59:33;16.13;;;11.47;;
17259;SDS011;8746;49.230;9.220;2023-02-13T18:01:58;13.77;;;10.40;;
17259;SDS011;8746;49.230;9.220;2023-02-13T18:04:24;13.90;;;10.30;;
17259;SDS011;8746;49.230;9.220;2023-02-13T18:06:50;16.37;;;11.60;;
17259;SDS011;8746;49.230;9.220;2023-02-13T18:09:17;15.37;;;11.20;;
17259;SDS011;8746;49.230;9.220;2023-02-13T18:11:45;15.40;;;11.27;;
17259;SDS011;8746;49.230;9.220;2023-02-13T18:14:11;19.03;;;11.80;;
17259;SDS011;8746;49.230;9.220;2023-02-13T18:16:37;16.27;;;12.17;;
17259;SDS011;8746;49.230;9.220;2023-02-13T18:19:02;16.40;;;12.03;;
17259;SDS011;8746;49.230;9.220;2023-02-13T18:21:29;19.13;;;12.10;;